createdAt,value
2022-08-19T00:01:40.736Z,13.50
2022-08-19T00:04:13.077Z,15.50
2022-08-19T00:06:43.318Z,14.30
2022-08-19T00:09:15.065Z,14.50
2022-08-19T00:11:44.052Z,15.50
2022-08-19T00:14:15.942Z,14.50
2022-08-19T00:16:45.883Z,15.00
2022-08-19T00:19:14.245Z,14.70
2022-08-19T00:21:41.963Z,15.40
2022-08-19T00:24:11.378Z,14.60
2022-08-19T00:26:40.075Z,15.00
2022-08-19T00:29:14.513Z,15.40
2022-08-19T00:31:43.349Z,16.10
2022-08-19T00:34:12.155Z,15.50
2022-08-19T00:36:40.200Z,17.20
2022-08-19T00:39:08.620Z,15.80
2022-08-19T00:41:36.515Z,16.90
2022-08-19T00:44:08.242Z,17.70
2022-08-19T00:46:38.885Z,16.70
2022-08-19T00:49:14.776Z,16.80
2022-08-19T00:51:43.760Z,16.20
2022-08-19T00:54:12.206Z,16.70
2022-08-19T00:56:40.821Z,15.80
2022-08-19T00:59:10.426Z,15.10
2022-08-19T01:01:40.378Z,14.60
2022-08-19T01:04:08.730Z,14.30
2022-08-19T01:06:37.840Z,15.50
2022-08-19T01:09:06.446Z,14.90
2022-08-19T01:11:39.792Z,14.40
2022-08-19T01:14:09.244Z,15.50
2022-08-19T01:16:38.607Z,15.30
2022-08-19T01:19:15.982Z,15.60
2022-08-19T01:21:51.620Z,13.90
2022-08-19T01:24:19.486Z,15.40
2022-08-19T01:26:48.133Z,15.00
2022-08-19T01:29:17.051Z,15.60
2022-08-19T01:31:44.961Z,18.30
2022-08-19T01:34:12.901Z,16.30
2022-08-19T01:36:47.471Z,15.00
2022-08-19T01:39:19.460Z,15.70
2022-08-19T01:41:51.637Z,15.60
2022-08-19T01:44:20.793Z,15.30
2022-08-19T01:46:49.708Z,15.80
2022-08-19T01:49:20.094Z,16.70
2022-08-19T01:51:50.061Z,15.70
2022-08-19T01:54:23.424Z,15.50
2022-08-19T01:57:00.561Z,15.30
2022-08-19T01:59:30.839Z,15.90
2022-08-19T02:01:58.738Z,17.40
2022-08-19T02:04:27.518Z,20.30
2022-08-19T02:06:55.317Z,17.10
2022-08-19T02:09:23.143Z,17.50
2022-08-19T02:11:51.027Z,17.20
2022-08-19T02:14:18.817Z,16.10
2022-08-19T02:16:46.608Z,17.40
2022-08-19T02:19:14.616Z,17.60
2022-08-19T02:21:43.727Z,16.20
2022-08-19T02:24:12.610Z,16.40
2022-08-19T02:26:40.886Z,17.50
2022-08-19T02:29:09.480Z,16.60
2022-08-19T02:31:37.706Z,17.40
2022-08-19T02:34:05.651Z,15.70
2022-08-19T02:36:33.380Z,16.60
2022-08-19T02:39:01.521Z,16.90
2022-08-19T02:41:32.775Z,16.20
2022-08-19T02:44:30.664Z,16.20
2022-08-19T02:46:52.796Z,16.10
2022-08-19T02:49:20.946Z,15.50
2022-08-19T02:51:49.109Z,16.80
2022-08-19T02:54:17.046Z,16.50
2022-08-19T02:56:45.742Z,16.50
2022-08-19T02:59:13.596Z,17.30
2022-08-19T03:01:43.189Z,17.20
2022-08-19T03:04:13.781Z,17.30
2022-08-19T03:06:43.192Z,16.20
2022-08-19T03:09:11.841Z,15.50
2022-08-19T03:11:39.773Z,16.30
2022-08-19T03:14:09.465Z,17.00
2022-08-19T03:16:42.885Z,16.40
2022-08-19T03:19:10.862Z,16.30
2022-08-19T03:21:38.670Z,16.90
2022-08-19T03:24:09.404Z,17.40
2022-08-19T03:26:40.109Z,16.70
2022-08-19T03:29:09.177Z,16.00
2022-08-19T03:31:45.709Z,15.90
2022-08-19T03:34:23.178Z,17.20
2022-08-19T03:36:51.323Z,16.00
2022-08-19T03:39:19.740Z,18.90
2022-08-19T03:41:50.252Z,19.50
2022-08-19T03:44:38.453Z,17.40
2022-08-19T03:47:06.909Z,17.30
2022-08-19T03:49:36.165Z,17.70
2022-08-19T03:52:07.660Z,17.00
2022-08-19T03:54:36.509Z,17.80
2022-08-19T03:57:05.111Z,16.90
2022-08-19T03:59:35.737Z,15.70
2022-08-19T04:02:09.292Z,17.00
2022-08-19T04:04:38.045Z,15.60
2022-08-19T04:07:06.205Z,15.80
2022-08-19T04:09:36.790Z,16.70
2022-08-19T04:12:06.477Z,16.00
2022-08-19T04:14:35.409Z,17.10
2022-08-19T04:17:05.581Z,17.20
2022-08-19T04:19:34.701Z,17.20
2022-08-19T04:22:02.998Z,17.90
2022-08-19T04:24:31.168Z,16.10
2022-08-19T04:27:01.640Z,16.30
2022-08-19T04:29:30.450Z,17.10
2022-08-19T04:31:59.595Z,17.90
2022-08-19T04:34:29.910Z,16.50
2022-08-19T04:36:59.273Z,17.30
2022-08-19T04:39:44.695Z,18.00
2022-08-19T04:42:31.654Z,17.20
2022-08-19T04:45:00.088Z,18.10
2022-08-19T04:47:49.149Z,18.30
2022-08-19T04:50:17.575Z,17.30
2022-08-19T04:52:46.954Z,16.20
2022-08-19T04:55:14.896Z,16.70
2022-08-19T04:57:42.682Z,17.80
2022-08-19T05:00:13.424Z,15.60
2022-08-19T05:02:41.619Z,18.10
2022-08-19T05:05:10.358Z,18.40
2022-08-19T05:07:38.515Z,17.60
2022-08-19T05:10:07.734Z,17.30
2022-08-19T05:12:36.010Z,17.70
2022-08-19T05:15:10.193Z,17.70
2022-08-19T05:17:39.218Z,17.60
2022-08-19T05:20:28.446Z,16.90
2022-08-19T05:22:56.437Z,16.70
2022-08-19T05:25:26.224Z,17.80
2022-08-19T05:27:54.060Z,19.00
2022-08-19T05:30:33.476Z,17.30
2022-08-19T05:33:10.341Z,19.10
2022-08-19T05:35:39.554Z,18.20
2022-08-19T05:38:08.096Z,24.00
2022-08-19T05:40:36.744Z,25.50
2022-08-19T05:43:05.972Z,23.70
2022-08-19T05:45:38.580Z,23.20
2022-08-19T05:48:07.125Z,21.70
2022-08-19T05:50:37.736Z,21.50
2022-08-19T05:53:05.788Z,20.50
2022-08-19T05:55:34.974Z,20.40
2022-08-19T05:58:04.777Z,21.30
2022-08-19T06:00:32.592Z,19.70
2022-08-19T06:03:11.770Z,19.60
2022-08-19T06:05:49.760Z,19.20
2022-08-19T06:08:33.548Z,20.20
2022-08-19T06:11:16.559Z,19.00
2022-08-19T06:13:49.497Z,17.40
2022-08-19T06:16:22.584Z,19.30
2022-08-19T06:18:52.291Z,19.50
2022-08-19T06:21:21.153Z,18.70
2022-08-19T06:23:50.648Z,18.10
2022-08-19T06:26:20.079Z,18.10
2022-08-19T06:28:48.485Z,17.80
2022-08-19T06:31:17.038Z,19.20
2022-08-19T06:33:45.638Z,17.90
2022-08-19T06:36:19.922Z,18.60
2022-08-19T06:38:47.704Z,19.70
2022-08-19T06:41:15.539Z,18.00
2022-08-19T06:43:44.105Z,17.70
2022-08-19T06:46:14.679Z,19.10
2022-08-19T06:48:45.260Z,19.10
2022-08-19T06:51:19.334Z,19.10
2022-08-19T06:53:47.868Z,17.70
2022-08-19T06:56:18.457Z,19.50
2022-08-19T06:58:46.902Z,19.70
2022-08-19T07:01:14.777Z,18.50
2022-08-19T07:03:42.405Z,19.60
2022-08-19T07:06:21.280Z,19.60
2022-08-19T07:09:01.429Z,19.60
2022-08-19T07:11:29.220Z,19.90
2022-08-19T07:13:57.511Z,18.00
2022-08-19T07:16:29.075Z,19.40
2022-08-19T07:18:58.966Z,16.90
2022-08-19T07:21:29.597Z,16.20
2022-08-19T07:24:01.838Z,14.80
2022-08-19T07:26:39.866Z,16.20
2022-08-19T07:29:11.414Z,15.30
2022-08-19T07:31:39.352Z,15.40
2022-08-19T07:34:11.761Z,15.70
2022-08-19T07:36:42.399Z,15.20
2022-08-19T07:39:13.188Z,14.60
2022-08-19T07:41:41.254Z,15.30
2022-08-19T07:44:09.804Z,14.70
2022-08-19T07:46:41.139Z,14.90
2022-08-19T07:49:18.610Z,14.90
2022-08-19T07:51:48.906Z,15.00
2022-08-19T07:54:17.237Z,14.40
2022-08-19T07:56:45.079Z,13.90
2022-08-19T07:59:12.878Z,13.50
2022-08-19T08:01:41.943Z,13.70
2022-08-19T08:04:28.733Z,14.00
2022-08-19T08:07:14.835Z,13.30
2022-08-19T08:09:49.692Z,14.30
2022-08-19T08:12:34.115Z,14.10
2022-08-19T08:15:08.566Z,13.70
2022-08-19T08:17:49.651Z,14.60
2022-08-19T08:20:20.530Z,13.50
2022-08-19T08:23:07.511Z,12.80
2022-08-19T08:25:36.864Z,12.00
2022-08-19T08:28:07.761Z,12.60
2022-08-19T08:33:05.385Z,12.30
2022-08-19T08:35:34.169Z,12.50
2022-08-19T08:38:04.071Z,13.00
2022-08-19T08:40:40.105Z,11.70
2022-08-19T08:43:11.829Z,12.60
2022-08-19T08:45:53.624Z,10.90
2022-08-19T08:48:33.541Z,11.90
2022-08-19T08:51:06.108Z,10.60
2022-08-19T08:53:41.485Z,11.20
2022-08-19T08:56:13.346Z,10.10
2022-08-19T08:58:55.318Z,10.10
2022-08-19T09:01:23.495Z,9.20
2022-08-19T09:03:54.873Z,10.60
2022-08-19T09:06:32.442Z,9.70
2022-08-19T09:09:11.919Z,9.30
2022-08-19T09:11:57.124Z,9.00
2022-08-19T09:14:57.101Z,8.80
2022-08-19T09:17:30.739Z,8.20
2022-08-19T09:20:05.278Z,9.40
2022-08-19T09:22:33.905Z,8.80
2022-08-19T09:25:02.385Z,9.80
2022-08-19T09:27:41.769Z,9.10
2022-08-19T09:30:15.879Z,8.90
2022-08-19T09:32:44.929Z,8.70
2022-08-19T09:35:14.068Z,9.70
2022-08-19T09:37:43.186Z,8.10
2022-08-19T09:40:13.230Z,8.50
2022-08-19T09:42:50.395Z,8.10
2022-08-19T09:45:22.621Z,8.20
2022-08-19T09:47:54.164Z,8.00
2022-08-19T09:50:24.122Z,7.90
2022-08-19T09:52:57.370Z,7.80
2022-08-19T09:55:32.024Z,6.80
2022-08-19T09:58:03.801Z,8.10
2022-08-19T10:00:33.677Z,7.00
2022-08-19T10:03:02.030Z,7.30
2022-08-19T10:05:49.671Z,7.40
2022-08-19T10:08:20.711Z,7.40
2022-08-19T10:10:50.890Z,9.20
2022-08-19T10:13:25.228Z,6.20
2022-08-19T10:15:55.688Z,7.30
2022-08-19T10:18:27.205Z,7.00
2022-08-19T10:21:08.967Z,6.60
2022-08-19T10:23:37.760Z,6.80
2022-08-19T10:26:07.474Z,6.70
2022-08-19T10:28:37.793Z,6.10
2022-08-19T10:31:08.676Z,6.90
2022-08-19T10:33:42.550Z,6.70
2022-08-19T10:36:23.927Z,6.30
2022-08-19T10:38:56.902Z,6.90
2022-08-19T10:41:29.329Z,6.60
2022-08-19T10:44:03.972Z,6.90
2022-08-19T10:46:34.486Z,8.10
2022-08-19T10:49:03.398Z,8.00
2022-08-19T10:51:50.414Z,6.10
2022-08-19T10:54:31.474Z,7.30
2022-08-19T10:57:01.469Z,7.70
2022-08-19T10:59:35.825Z,7.80
2022-08-19T11:02:06.946Z,7.40
2022-08-19T11:04:35.762Z,7.10
2022-08-19T11:07:05.181Z,7.20
2022-08-19T11:09:38.190Z,7.40
2022-08-19T11:12:07.667Z,7.30
2022-08-19T11:14:36.346Z,8.70
2022-08-19T11:17:05.154Z,8.60
2022-08-19T11:19:33.743Z,10.30
2022-08-19T11:22:02.855Z,10.40
2022-08-19T11:24:33.036Z,11.20
2022-08-19T11:27:05.109Z,8.80
2022-08-19T11:29:34.717Z,8.10
2022-08-19T11:32:06.255Z,9.70
2022-08-19T11:34:35.619Z,9.50
2022-08-19T11:37:06.072Z,10.00
2022-08-19T11:42:26.744Z,10.40
2022-08-19T11:44:57.767Z,10.10
2022-08-19T11:47:26.686Z,12.70
2022-08-19T11:49:55.068Z,10.00
2022-08-19T11:52:23.594Z,9.40
2022-08-19T11:54:51.918Z,9.80
2022-08-19T11:57:20.228Z,9.90
2022-08-19T11:59:51.464Z,9.60
2022-08-19T12:02:19.719Z,9.00
2022-08-19T12:04:47.688Z,10.20
2022-08-19T12:07:15.646Z,11.70
2022-08-19T12:09:43.445Z,10.40
2022-08-19T12:12:11.524Z,10.50
2022-08-19T12:14:39.329Z,11.10
2022-08-19T12:17:09.078Z,12.00
2022-08-19T12:19:39.963Z,13.80
2022-08-19T12:22:08.003Z,11.70
2022-08-19T12:24:36.222Z,12.40
2022-08-19T12:27:04.366Z,12.40
2022-08-19T12:29:32.917Z,11.00
2022-08-19T12:32:02.381Z,12.00
2022-08-19T12:34:32.867Z,11.90
2022-08-19T12:37:04.797Z,12.60
2022-08-19T12:39:35.684Z,10.20
2022-08-19T12:42:04.977Z,10.50
2022-08-19T12:44:33.651Z,10.50
2022-08-19T12:47:02.798Z,10.70
2022-08-19T12:49:53.261Z,10.80
2022-08-19T12:52:23.507Z,9.70
2022-08-19T12:54:54.560Z,9.70
2022-08-19T12:57:31.497Z,9.40
2022-08-19T13:00:06.306Z,9.20
2022-08-19T13:02:38.480Z,8.80
2022-08-19T13:05:11.458Z,8.40
2022-08-19T13:07:41.333Z,7.90
2022-08-19T13:10:12.037Z,8.70
2022-08-19T13:12:41.643Z,9.30
2022-08-19T13:15:11.618Z,10.20
2022-08-19T13:17:40.719Z,10.40
2022-08-19T13:20:11.341Z,9.20
2022-08-19T13:22:45.111Z,9.40
2022-08-19T13:25:16.761Z,8.70
2022-08-19T13:27:45.391Z,8.50
2022-08-19T13:30:34.809Z,8.40
2022-08-19T13:33:12.017Z,8.30
2022-08-19T13:35:40.924Z,8.90
2022-08-19T13:38:11.913Z,8.90
2022-08-19T13:40:41.469Z,8.20
2022-08-19T13:43:13.578Z,7.20
2022-08-19T13:45:54.079Z,7.50
2022-08-19T13:48:22.514Z,7.20
2022-08-19T13:50:50.276Z,8.50
2022-08-19T13:53:19.057Z,7.70
2022-08-19T13:55:46.881Z,8.20
2022-08-19T13:58:14.678Z,8.20
2022-08-19T14:00:45.627Z,8.60
2022-08-19T14:03:13.570Z,9.30
2022-08-19T14:05:41.354Z,8.30
2022-08-19T14:08:09.518Z,9.00
2022-08-19T14:10:37.751Z,8.70
2022-08-19T14:13:05.801Z,8.70
2022-08-19T14:15:33.682Z,9.10
2022-08-19T14:18:02.094Z,8.40
2022-08-19T14:20:31.194Z,7.70
2022-08-19T14:22:59.686Z,8.30
2022-08-19T14:25:31.204Z,7.90
2022-08-19T14:27:59.672Z,7.20
2022-08-19T14:30:30.400Z,8.60
2022-08-19T14:33:02.318Z,9.20
2022-08-19T14:35:34.816Z,8.60
2022-08-19T14:38:03.448Z,8.90
2022-08-19T14:40:32.334Z,7.70
2022-08-19T14:43:04.562Z,7.90
2022-08-19T14:45:35.092Z,8.10
2022-08-19T14:48:06.188Z,7.60
2022-08-19T14:50:36.364Z,8.80
2022-08-19T14:53:12.029Z,7.50
2022-08-19T14:55:44.032Z,7.00
2022-08-19T14:58:29.266Z,7.80
2022-08-19T15:00:59.906Z,7.60
2022-08-19T15:03:28.905Z,7.70
2022-08-19T15:05:57.691Z,7.30
2022-08-19T15:08:26.330Z,8.20
2022-08-19T15:10:54.818Z,7.50
2022-08-19T15:13:24.978Z,7.70
2022-08-19T15:15:52.844Z,6.80
2022-08-19T15:18:22.053Z,7.30
2022-08-19T15:20:50.231Z,7.20
2022-08-19T15:23:19.173Z,7.00
2022-08-19T15:25:47.505Z,6.70
2022-08-19T15:28:16.619Z,7.20
2022-08-19T15:30:44.481Z,6.20
2022-08-19T15:33:14.495Z,6.10
2022-08-19T15:35:42.985Z,6.30
2022-08-19T15:38:13.211Z,6.80
2022-08-19T15:40:41.976Z,6.90
2022-08-19T15:43:10.710Z,7.50
2022-08-19T15:45:39.647Z,6.90
2022-08-19T15:48:07.539Z,6.90
2022-08-19T15:50:35.442Z,7.20
2022-08-19T15:53:06.967Z,6.90
2022-08-19T15:55:41.297Z,6.80
2022-08-19T15:58:30.022Z,6.20
2022-08-19T16:01:18.313Z,6.20
2022-08-19T16:04:14.034Z,6.70
2022-08-19T16:06:45.954Z,6.20
2022-08-19T16:09:15.543Z,6.90
2022-08-19T16:11:46.293Z,5.90
2022-08-19T16:14:17.917Z,5.30
2022-08-19T16:16:47.264Z,6.10
2022-08-19T16:19:17.889Z,5.30
2022-08-19T16:21:48.418Z,5.40
2022-08-19T16:24:18.922Z,5.80
2022-08-19T16:26:47.611Z,6.60
2022-08-19T16:29:33.191Z,6.30
2022-08-19T16:32:06.000Z,6.00
2022-08-19T16:34:34.002Z,6.90
2022-08-19T16:37:04.283Z,7.00
2022-08-19T16:39:32.609Z,7.50
2022-08-19T16:42:01.841Z,7.00
2022-08-19T16:44:30.102Z,6.80
2022-08-19T16:46:58.730Z,7.20
2022-08-19T16:49:53.101Z,8.60
2022-08-19T16:52:15.939Z,7.10
2022-08-19T16:54:44.715Z,7.10
2022-08-19T16:57:13.186Z,8.80
2022-08-19T16:59:43.798Z,7.20
2022-08-19T17:02:17.744Z,7.50
2022-08-19T17:04:57.122Z,7.90
2022-08-19T17:07:27.317Z,7.00
2022-08-19T17:09:55.424Z,6.80
2022-08-19T17:12:30.512Z,7.20
2022-08-19T17:15:02.402Z,7.10
2022-08-19T17:17:31.420Z,7.30
2022-08-19T17:20:01.446Z,7.60
2022-08-19T17:22:29.635Z,7.40
2022-08-19T17:24:58.215Z,7.00
2022-08-19T17:27:27.295Z,7.30
2022-08-19T17:30:02.015Z,7.60
2022-08-19T17:32:31.775Z,7.60
2022-08-19T17:35:00.039Z,8.70
2022-08-19T17:37:28.958Z,8.60
2022-08-19T17:39:56.963Z,8.10
2022-08-19T17:42:24.743Z,8.40
2022-08-19T17:44:52.460Z,8.30
2022-08-19T17:47:20.625Z,9.20
2022-08-19T17:49:48.983Z,8.40
2022-08-19T17:52:16.706Z,8.50
2022-08-19T17:54:44.603Z,8.20
2022-08-19T17:57:13.373Z,8.70
2022-08-19T17:59:44.170Z,7.90
2022-08-19T18:02:12.661Z,8.10
2022-08-19T18:04:45.460Z,8.70
2022-08-19T18:07:20.635Z,8.40
2022-08-19T18:09:51.778Z,8.10
2022-08-19T18:12:24.152Z,8.80
2022-08-19T18:14:51.891Z,8.20
2022-08-19T18:17:22.463Z,8.40
2022-08-19T18:19:51.099Z,9.00
2022-08-19T18:22:25.945Z,8.40
2022-08-19T18:24:54.210Z,9.50
2022-08-19T18:27:21.921Z,9.20
2022-08-19T18:29:49.854Z,9.40
2022-08-19T18:32:23.105Z,8.70
2022-08-19T18:34:53.415Z,9.70
2022-08-19T18:37:21.844Z,9.80
2022-08-19T18:40:08.283Z,9.10
2022-08-19T18:42:54.389Z,9.20
2022-08-19T18:45:40.831Z,10.20
2022-08-19T18:48:30.207Z,9.90
2022-08-19T18:50:59.676Z,9.30
2022-08-19T18:53:30.091Z,9.60
2022-08-19T18:55:58.996Z,9.40
2022-08-19T18:58:31.537Z,9.40
2022-08-19T19:01:02.112Z,9.00
2022-08-19T19:03:29.939Z,8.50
2022-08-19T19:05:58.188Z,8.00
2022-08-19T19:08:27.641Z,8.20
2022-08-19T19:10:58.250Z,8.30
2022-08-19T19:13:27.923Z,8.50
2022-08-19T19:15:56.313Z,8.20
2022-08-19T19:18:24.529Z,8.50
2022-08-19T19:20:52.324Z,8.70
2022-08-19T19:23:20.773Z,8.70
2022-08-19T19:25:50.195Z,9.50
2022-08-19T19:28:24.559Z,9.10
2022-08-19T19:30:53.465Z,8.50
2022-08-19T19:33:21.283Z,9.00
2022-08-19T19:35:49.158Z,9.00
2022-08-19T19:38:16.929Z,9.70
2022-08-19T19:40:45.201Z,8.80
2022-08-19T19:43:16.461Z,9.10
2022-08-19T19:45:45.550Z,9.60
2022-08-19T19:48:14.186Z,8.50
2022-08-19T19:50:42.816Z,8.60
2022-08-19T19:53:10.993Z,9.20
2022-08-19T19:55:40.588Z,8.80
2022-08-19T19:58:09.309Z,8.70
2022-08-19T20:00:37.288Z,9.70
2022-08-19T20:03:06.519Z,8.90
2022-08-19T20:05:34.360Z,9.70
2022-08-19T20:08:20.654Z,10.20
2022-08-19T20:10:48.932Z,9.30
2022-08-19T20:13:16.991Z,9.60
2022-08-19T20:15:45.140Z,9.20
2022-08-19T20:18:14.138Z,9.00
2022-08-19T20:20:44.368Z,9.20
2022-08-19T20:23:12.692Z,8.80
2022-08-19T20:25:40.646Z,8.30
2022-08-19T20:28:08.595Z,8.30
2022-08-19T20:30:38.422Z,8.40
2022-08-19T20:33:13.893Z,9.10
2022-08-19T20:35:43.954Z,9.00
2022-08-19T20:38:12.028Z,8.90
2022-08-19T20:40:40.502Z,9.00
2022-08-19T20:43:09.881Z,8.40
2022-08-19T20:45:38.198Z,9.10
2022-08-19T20:48:08.416Z,9.30
2022-08-19T20:50:37.960Z,8.80
2022-08-19T20:53:12.005Z,8.40
2022-08-19T20:55:42.089Z,7.70
2022-08-19T20:58:12.757Z,8.30
2022-08-19T21:00:44.250Z,7.90
2022-08-19T21:03:14.380Z,8.30
2022-08-19T21:05:42.297Z,8.50
2022-08-19T21:08:10.236Z,8.10
2022-08-19T21:10:42.153Z,8.30
2022-08-19T21:13:11.705Z,8.80
2022-08-19T21:15:42.458Z,8.40
2022-08-19T21:18:12.047Z,8.30
2022-08-19T21:20:41.386Z,8.50
2022-08-19T21:23:12.834Z,8.40
2022-08-19T21:25:41.336Z,8.30
2022-08-19T21:28:35.009Z,7.70
2022-08-19T21:31:09.707Z,8.20
2022-08-19T21:33:38.383Z,8.10
2022-08-19T21:36:07.506Z,7.80
2022-08-19T21:38:35.445Z,7.80
2022-08-19T21:41:05.831Z,8.20
2022-08-19T21:43:34.912Z,8.00
2022-08-19T21:46:04.710Z,8.10
2022-08-19T21:48:32.599Z,8.10
2022-08-19T21:51:01.596Z,8.20
2022-08-19T21:53:31.550Z,7.70
2022-08-19T21:56:02.302Z,7.50
2022-08-19T21:58:30.818Z,8.20
2022-08-19T22:00:59.265Z,7.40
2022-08-19T22:03:27.449Z,7.70
2022-08-19T22:05:55.234Z,7.80
2022-08-19T22:08:23.165Z,8.00
2022-08-19T22:10:51.357Z,8.30
2022-08-19T22:13:20.369Z,8.70
2022-08-19T22:15:49.711Z,7.80
2022-08-19T22:18:18.393Z,8.10
2022-08-19T22:20:47.069Z,7.70
2022-08-19T22:23:14.907Z,8.60
2022-08-19T22:25:45.998Z,7.90
2022-08-19T22:28:18.720Z,8.10
2022-08-19T22:30:47.365Z,7.90
2022-08-19T22:33:21.905Z,8.80
2022-08-19T22:35:52.182Z,8.00
2022-08-19T22:38:20.003Z,7.50
2022-08-19T22:40:51.284Z,8.50
2022-08-19T22:43:20.724Z,8.50
2022-08-19T22:45:51.048Z,8.30
2022-08-19T22:48:21.824Z,9.20
2022-08-19T22:51:04.690Z,8.40
2022-08-19T22:53:33.089Z,7.70
2022-08-19T22:56:02.063Z,8.20
2022-08-19T22:58:29.998Z,7.40
2022-08-19T23:00:57.851Z,8.70
2022-08-19T23:03:26.055Z,8.60
2022-08-19T23:05:55.438Z,8.10
2022-08-19T23:08:23.461Z,7.70
2022-08-19T23:10:51.341Z,8.00
2022-08-19T23:13:19.616Z,8.70
2022-08-19T23:15:48.024Z,8.30
2022-08-19T23:18:16.502Z,8.70
2022-08-19T23:20:44.750Z,8.70
2022-08-19T23:23:18.573Z,8.90
2022-08-19T23:25:48.487Z,8.90
2022-08-19T23:28:34.795Z,8.80
2022-08-19T23:31:05.048Z,8.50
2022-08-19T23:33:46.470Z,8.60
2022-08-19T23:36:19.864Z,8.20
2022-08-19T23:38:49.859Z,8.10
2022-08-19T23:41:19.116Z,8.10
2022-08-19T23:43:47.110Z,7.80
2022-08-19T23:46:27.467Z,8.60
2022-08-19T23:48:56.936Z,8.00
2022-08-19T23:51:25.773Z,9.10
2022-08-19T23:53:53.558Z,8.70
2022-08-19T23:56:21.222Z,8.50
2022-08-19T23:58:48.978Z,8.60
